sensor_id;sensor_type;location;lat;lon;timestamp;P1;durP1;ratioP1;P2;durP2;ratioP2
41883;SDS011;27566;50.930;5.328;2023-08-06T00:00:24;6.97;;;3.42;;
41883;SDS011;27566;50.930;5.328;2023-08-06T00:02:50;5.63;;;2.38;;
41883;SDS011;27566;50.930;5.328;2023-08-06T00:05:16;9.50;;;4.35;;
41883;SDS011;27566;50.930;5.328;2023-08-06T00:07:49;13.80;;;4.05;;
41883;SDS011;27566;50.930;5.328;2023-08-06T00:10:16;5.88;;;2.72;;
41883;SDS011;27566;50.930;5.328;2023-08-06T00:12:43;7.50;;;2.92;;
41883;SDS011;27566;50.930;5.328;2023-08-06T00:15:09;9.38;;;4.00;;
41883;SDS011;27566;50.930;5.328;2023-08-06T00:17:36;6.03;;;2.05;;
41883;SDS011;27566;50.930;5.328;2023-08-06T00:20:02;8.63;;;3.92;;
41883;SDS011;27566;50.930;5.328;2023-08-06T00:22:35;8.70;;;4.00;;
41883;SDS011;27566;50.930;5.328;2023-08-06T00:25:01;7.65;;;3.20;;
41883;SDS011;27566;50.930;5.328;2023-08-06T00:27:28;8.75;;;3.63;;
41883;SDS011;27566;50.930;5.328;2023-08-06T00:29:54;8.48;;;2.95;;
41883;SDS011;27566;50.930;5.328;2023-08-06T00:32:20;4.68;;;2.70;;
41883;SDS011;27566;50.930;5.328;2023-08-06T00:34:46;10.10;;;2.95;;
41883;SDS011;27566;50.930;5.328;2023-08-06T00:37:14;6.28;;;2.38;;
41883;SDS011;27566;50.930;5.328;2023-08-06T00:39:43;5.45;;;2.35;;
41883;SDS011;27566;50.930;5.328;2023-08-06T00:42:10;6.68;;;3.38;;
41883;SDS011;27566;50.930;5.328;2023-08-06T00:44:36;11.15;;;3.47;;
41883;SDS011;27566;50.930;5.328;2023-08-06T00:47:03;8.23;;;4.30;;
41883;SDS011;27566;50.930;5.328;2023-08-06T00:49:29;8.82;;;3.08;;
41883;SDS011;27566;50.930;5.328;2023-08-06T00:51:55;5.97;;;2.65;;
41883;SDS011;27566;50.930;5.328;2023-08-06T00:54:22;6.03;;;2.15;;
41883;SDS011;27566;50.930;5.328;2023-08-06T00:56:50;7.03;;;2.42;;
41883;SDS011;27566;50.930;5.328;2023-08-06T00:59:15;8.35;;;2.40;;
41883;SDS011;27566;50.930;5.328;2023-08-06T01:01:41;4.43;;;1.90;;
41883;SDS011;27566;50.930;5.328;2023-08-06T01:04:08;4.45;;;2.00;;
41883;SDS011;27566;50.930;5.328;2023-08-06T01:12:09;4.10;;;1.50;;
41883;SDS011;27566;50.930;5.328;2023-08-06T01:15:11;4.63;;;2.08;;
41883;SDS011;27566;50.930;5.328;2023-08-06T01:17:46;7.05;;;2.78;;
41883;SDS011;27566;50.930;5.328;2023-08-06T01:20:13;5.07;;;2.55;;
41883;SDS011;27566;50.930;5.328;2023-08-06T01:22:39;6.18;;;1.80;;
41883;SDS011;27566;50.930;5.328;2023-08-06T01:25:05;3.92;;;1.73;;
41883;SDS011;27566;50.930;5.328;2023-08-06T01:30:13;5.18;;;2.10;;
41883;SDS011;27566;50.930;5.328;2023-08-06T01:32:53;6.22;;;2.08;;
41883;SDS011;27566;50.930;5.328;2023-08-06T01:35:23;3.50;;;1.88;;
41883;SDS011;27566;50.930;5.328;2023-08-06T01:37:52;6.25;;;2.60;;
41883;SDS011;27566;50.930;5.328;2023-08-06T01:40:21;5.88;;;1.75;;
41883;SDS011;27566;50.930;5.328;2023-08-06T01:42:47;3.50;;;1.60;;
41883;SDS011;27566;50.930;5.328;2023-08-06T01:45:13;5.13;;;2.10;;
41883;SDS011;27566;50.930;5.328;2023-08-06T01:47:39;7.53;;;2.28;;
41883;SDS011;27566;50.930;5.328;2023-08-06T01:50:05;4.05;;;1.73;;
41883;SDS011;27566;50.930;5.328;2023-08-06T01:52:31;5.53;;;1.63;;
41883;SDS011;27566;50.930;5.328;2023-08-06T01:54:57;5.28;;;1.88;;
41883;SDS011;27566;50.930;5.328;2023-08-06T01:57:23;5.55;;;2.42;;
41883;SDS011;27566;50.930;5.328;2023-08-06T01:59:49;6.70;;;1.95;;
41883;SDS011;27566;50.930;5.328;2023-08-06T02:02:15;5.22;;;1.85;;
41883;SDS011;27566;50.930;5.328;2023-08-06T02:04:41;4.35;;;1.30;;
41883;SDS011;27566;50.930;5.328;2023-08-06T02:07:06;5.70;;;1.63;;
41883;SDS011;27566;50.930;5.328;2023-08-06T02:09:32;5.85;;;1.90;;
41883;SDS011;27566;50.930;5.328;2023-08-06T02:11:58;4.45;;;1.63;;
41883;SDS011;27566;50.930;5.328;2023-08-06T02:14:24;4.45;;;1.63;;
41883;SDS011;27566;50.930;5.328;2023-08-06T02:16:50;6.90;;;1.70;;
41883;SDS011;27566;50.930;5.328;2023-08-06T02:19:15;8.88;;;1.50;;
41883;SDS011;27566;50.930;5.328;2023-08-06T02:21:42;2.78;;;1.60;;
41883;SDS011;27566;50.930;5.328;2023-08-06T02:24:07;5.57;;;1.65;;
41883;SDS011;27566;50.930;5.328;2023-08-06T02:26:33;4.60;;;1.58;;
41883;SDS011;27566;50.930;5.328;2023-08-06T02:28:59;3.90;;;1.38;;
41883;SDS011;27566;50.930;5.328;2023-08-06T02:31:25;4.60;;;1.95;;
41883;SDS011;27566;50.930;5.328;2023-08-06T02:33:50;4.45;;;1.42;;
41883;SDS011;27566;50.930;5.328;2023-08-06T02:36:17;5.00;;;2.00;;
41883;SDS011;27566;50.930;5.328;2023-08-06T02:38:42;6.07;;;2.25;;
41883;SDS011;27566;50.930;5.328;2023-08-06T02:41:08;4.50;;;1.60;;
41883;SDS011;27566;50.930;5.328;2023-08-06T02:43:34;3.75;;;1.65;;
41883;SDS011;27566;50.930;5.328;2023-08-06T02:46:00;3.20;;;1.50;;
41883;SDS011;27566;50.930;5.328;2023-08-06T02:48:26;5.28;;;1.70;;
41883;SDS011;27566;50.930;5.328;2023-08-06T02:50:52;3.28;;;1.67;;
41883;SDS011;27566;50.930;5.328;2023-08-06T02:53:22;5.07;;;1.63;;
41883;SDS011;27566;50.930;5.328;2023-08-06T02:55:48;4.55;;;1.70;;
41883;SDS011;27566;50.930;5.328;2023-08-06T02:58:14;7.18;;;2.05;;
41883;SDS011;27566;50.930;5.328;2023-08-06T03:00:41;6.65;;;2.28;;
41883;SDS011;27566;50.930;5.328;2023-08-06T03:03:08;5.05;;;1.98;;
41883;SDS011;27566;50.930;5.328;2023-08-06T03:05:34;5.43;;;2.00;;
41883;SDS011;27566;50.930;5.328;2023-08-06T03:07:59;6.28;;;2.50;;
41883;SDS011;27566;50.930;5.328;2023-08-06T03:10:25;3.38;;;2.00;;
41883;SDS011;27566;50.930;5.328;2023-08-06T03:12:51;4.70;;;1.63;;
41883;SDS011;27566;50.930;5.328;2023-08-06T03:15:17;7.85;;;2.30;;
41883;SDS011;27566;50.930;5.328;2023-08-06T03:17:43;5.90;;;2.13;;
41883;SDS011;27566;50.930;5.328;2023-08-06T03:20:09;5.03;;;2.03;;
41883;SDS011;27566;50.930;5.328;2023-08-06T03:22:35;3.92;;;2.40;;
41883;SDS011;27566;50.930;5.328;2023-08-06T03:25:01;5.03;;;2.65;;
41883;SDS011;27566;50.930;5.328;2023-08-06T03:27:27;3.35;;;1.95;;
41883;SDS011;27566;50.930;5.328;2023-08-06T03:29:53;5.55;;;2.35;;
41883;SDS011;27566;50.930;5.328;2023-08-06T03:32:19;3.17;;;1.92;;
41883;SDS011;27566;50.930;5.328;2023-08-06T03:34:44;3.42;;;2.17;;
41883;SDS011;27566;50.930;5.328;2023-08-06T03:37:10;5.80;;;2.47;;
41883;SDS011;27566;50.930;5.328;2023-08-06T03:39:36;6.85;;;2.92;;
41883;SDS011;27566;50.930;5.328;2023-08-06T03:42:02;8.45;;;3.03;;
41883;SDS011;27566;50.930;5.328;2023-08-06T03:44:30;6.30;;;3.33;;
41883;SDS011;27566;50.930;5.328;2023-08-06T03:46:56;8.95;;;3.83;;
41883;SDS011;27566;50.930;5.328;2023-08-06T03:49:22;7.30;;;3.15;;
41883;SDS011;27566;50.930;5.328;2023-08-06T03:51:48;5.90;;;3.40;;
41883;SDS011;27566;50.930;5.328;2023-08-06T03:54:14;8.68;;;3.95;;
41883;SDS011;27566;50.930;5.328;2023-08-06T03:56:39;8.65;;;4.50;;
41883;SDS011;27566;50.930;5.328;2023-08-06T03:59:06;7.05;;;4.20;;
41883;SDS011;27566;50.930;5.328;2023-08-06T04:01:32;7.20;;;3.83;;
41883;SDS011;27566;50.930;5.328;2023-08-06T04:03:58;9.43;;;3.80;;
41883;SDS011;27566;50.930;5.328;2023-08-06T04:06:24;8.13;;;4.22;;
41883;SDS011;27566;50.930;5.328;2023-08-06T04:08:50;8.02;;;4.15;;
41883;SDS011;27566;50.930;5.328;2023-08-06T04:11:16;7.20;;;3.95;;
41883;SDS011;27566;50.930;5.328;2023-08-06T04:13:42;9.30;;;4.55;;
41883;SDS011;27566;50.930;5.328;2023-08-06T04:16:09;9.75;;;4.47;;
41883;SDS011;27566;50.930;5.328;2023-08-06T04:18:35;8.35;;;4.43;;
41883;SDS011;27566;50.930;5.328;2023-08-06T04:21:01;8.85;;;4.63;;
41883;SDS011;27566;50.930;5.328;2023-08-06T04:23:27;14.73;;;5.10;;
41883;SDS011;27566;50.930;5.328;2023-08-06T04:25:56;12.07;;;5.65;;
41883;SDS011;27566;50.930;5.328;2023-08-06T04:28:22;11.32;;;4.80;;
41883;SDS011;27566;50.930;5.328;2023-08-06T04:30:48;13.82;;;5.22;;
41883;SDS011;27566;50.930;5.328;2023-08-06T04:33:14;9.98;;;3.97;;
41883;SDS011;27566;50.930;5.328;2023-08-06T04:35:40;10.70;;;6.00;;
41883;SDS011;27566;50.930;5.328;2023-08-06T04:38:05;11.32;;;5.03;;
41883;SDS011;27566;50.930;5.328;2023-08-06T04:40:33;11.48;;;6.00;;
41883;SDS011;27566;50.930;5.328;2023-08-06T04:43:00;10.38;;;4.70;;
41883;SDS011;27566;50.930;5.328;2023-08-06T04:45:27;11.18;;;5.20;;
41883;SDS011;27566;50.930;5.328;2023-08-06T04:47:52;11.13;;;6.00;;
41883;SDS011;27566;50.930;5.328;2023-08-06T04:50:21;12.90;;;6.18;;
41883;SDS011;27566;50.930;5.328;2023-08-06T04:52:47;11.20;;;5.38;;
41883;SDS011;27566;50.930;5.328;2023-08-06T04:55:13;13.23;;;6.68;;
41883;SDS011;27566;50.930;5.328;2023-08-06T04:57:39;10.23;;;5.78;;
41883;SDS011;27566;50.930;5.328;2023-08-06T05:00:05;10.63;;;6.00;;
41883;SDS011;27566;50.930;5.328;2023-08-06T05:02:31;10.43;;;5.53;;
41883;SDS011;27566;50.930;5.328;2023-08-06T05:04:58;12.57;;;6.00;;
41883;SDS011;27566;50.930;5.328;2023-08-06T05:07:24;12.10;;;6.88;;
41883;SDS011;27566;50.930;5.328;2023-08-06T05:09:50;11.10;;;5.97;;
41883;SDS011;27566;50.930;5.328;2023-08-06T05:12:15;9.43;;;5.05;;
41883;SDS011;27566;50.930;5.328;2023-08-06T05:14:41;7.05;;;4.53;;
41883;SDS011;27566;50.930;5.328;2023-08-06T05:17:07;8.23;;;4.60;;
41883;SDS011;27566;50.930;5.328;2023-08-06T05:19:33;7.15;;;4.05;;
41883;SDS011;27566;50.930;5.328;2023-08-06T05:21:59;6.82;;;4.32;;
41883;SDS011;27566;50.930;5.328;2023-08-06T05:24:27;6.80;;;4.20;;
41883;SDS011;27566;50.930;5.328;2023-08-06T05:26:52;8.27;;;4.13;;
41883;SDS011;27566;50.930;5.328;2023-08-06T05:29:18;7.75;;;4.60;;
41883;SDS011;27566;50.930;5.328;2023-08-06T05:31:44;7.03;;;4.28;;
41883;SDS011;27566;50.930;5.328;2023-08-06T05:34:10;7.78;;;3.53;;
41883;SDS011;27566;50.930;5.328;2023-08-06T05:36:36;6.22;;;3.28;;
41883;SDS011;27566;50.930;5.328;2023-08-06T05:39:02;8.55;;;3.92;;
41883;SDS011;27566;50.930;5.328;2023-08-06T05:41:28;9.48;;;3.80;;
41883;SDS011;27566;50.930;5.328;2023-08-06T05:43:54;7.93;;;3.30;;
41883;SDS011;27566;50.930;5.328;2023-08-06T05:46:20;5.68;;;3.15;;
41883;SDS011;27566;50.930;5.328;2023-08-06T05:48:46;7.85;;;3.42;;
41883;SDS011;27566;50.930;5.328;2023-08-06T05:51:12;7.82;;;3.30;;
41883;SDS011;27566;50.930;5.328;2023-08-06T05:53:38;5.57;;;2.78;;
41883;SDS011;27566;50.930;5.328;2023-08-06T05:56:04;3.92;;;2.38;;
41883;SDS011;27566;50.930;5.328;2023-08-06T05:58:30;5.75;;;2.58;;
41883;SDS011;27566;50.930;5.328;2023-08-06T06:04:17;10.63;;;4.28;;
41883;SDS011;27566;50.930;5.328;2023-08-06T06:06:43;8.93;;;4.03;;
41883;SDS011;27566;50.930;5.328;2023-08-06T06:09:10;11.23;;;4.57;;
41883;SDS011;27566;50.930;5.328;2023-08-06T06:11:35;9.40;;;4.72;;
41883;SDS011;27566;50.930;5.328;2023-08-06T06:14:01;7.18;;;3.80;;
41883;SDS011;27566;50.930;5.328;2023-08-06T06:16:27;7.03;;;4.15;;
41883;SDS011;27566;50.930;5.328;2023-08-06T06:18:53;6.03;;;2.65;;
41883;SDS011;27566;50.930;5.328;2023-08-06T06:21:20;5.82;;;3.25;;
41883;SDS011;27566;50.930;5.328;2023-08-06T06:23:45;5.15;;;2.75;;
41883;SDS011;27566;50.930;5.328;2023-08-06T06:26:12;3.70;;;1.80;;
41883;SDS011;27566;50.930;5.328;2023-08-06T06:28:38;5.68;;;2.50;;
41883;SDS011;27566;50.930;5.328;2023-08-06T06:31:04;4.93;;;2.42;;
41883;SDS011;27566;50.930;5.328;2023-08-06T06:33:30;4.63;;;2.55;;
41883;SDS011;27566;50.930;5.328;2023-08-06T06:35:55;5.70;;;3.00;;
41883;SDS011;27566;50.930;5.328;2023-08-06T06:38:21;6.45;;;3.22;;
41883;SDS011;27566;50.930;5.328;2023-08-06T06:40:54;6.65;;;3.80;;
41883;SDS011;27566;50.930;5.328;2023-08-06T06:43:23;7.55;;;3.70;;
41883;SDS011;27566;50.930;5.328;2023-08-06T06:46:07;8.20;;;4.13;;
41883;SDS011;27566;50.930;5.328;2023-08-06T06:48:33;9.07;;;5.07;;
41883;SDS011;27566;50.930;5.328;2023-08-06T06:50:59;8.43;;;5.40;;
41883;SDS011;27566;50.930;5.328;2023-08-06T06:53:25;9.02;;;5.28;;
41883;SDS011;27566;50.930;5.328;2023-08-06T06:56:04;8.07;;;5.47;;
41883;SDS011;27566;50.930;5.328;2023-08-06T06:58:33;10.45;;;6.68;;
41883;SDS011;27566;50.930;5.328;2023-08-06T07:00:58;10.65;;;6.22;;
41883;SDS011;27566;50.930;5.328;2023-08-06T07:03:24;12.90;;;6.20;;
41883;SDS011;27566;50.930;5.328;2023-08-06T07:05:51;9.13;;;5.97;;
41883;SDS011;27566;50.930;5.328;2023-08-06T07:08:24;15.15;;;7.00;;
41883;SDS011;27566;50.930;5.328;2023-08-06T07:10:50;12.60;;;7.25;;
41883;SDS011;27566;50.930;5.328;2023-08-06T07:13:24;10.38;;;7.15;;
41883;SDS011;27566;50.930;5.328;2023-08-06T07:15:50;9.27;;;6.15;;
41883;SDS011;27566;50.930;5.328;2023-08-06T07:18:16;11.52;;;6.05;;
41883;SDS011;27566;50.930;5.328;2023-08-06T07:20:41;10.95;;;5.13;;
41883;SDS011;27566;50.930;5.328;2023-08-06T07:23:12;8.70;;;5.18;;
41883;SDS011;27566;50.930;5.328;2023-08-06T07:25:38;7.65;;;3.42;;
41883;SDS011;27566;50.930;5.328;2023-08-06T07:28:04;9.80;;;3.50;;
41883;SDS011;27566;50.930;5.328;2023-08-06T07:30:30;5.18;;;2.55;;
41883;SDS011;27566;50.930;5.328;2023-08-06T07:32:56;7.10;;;2.67;;
41883;SDS011;27566;50.930;5.328;2023-08-06T07:35:22;5.97;;;2.97;;
41883;SDS011;27566;50.930;5.328;2023-08-06T07:37:48;4.90;;;2.35;;
41883;SDS011;27566;50.930;5.328;2023-08-06T07:40:14;6.95;;;3.00;;
41883;SDS011;27566;50.930;5.328;2023-08-06T07:42:39;9.00;;;3.35;;
41883;SDS011;27566;50.930;5.328;2023-08-06T07:45:06;12.60;;;3.15;;
41883;SDS011;27566;50.930;5.328;2023-08-06T07:47:33;9.35;;;3.50;;
41883;SDS011;27566;50.930;5.328;2023-08-06T07:49:58;12.02;;;3.72;;
41883;SDS011;27566;50.930;5.328;2023-08-06T07:52:24;8.63;;;3.22;;
41883;SDS011;27566;50.930;5.328;2023-08-06T07:54:50;8.48;;;3.72;;
41883;SDS011;27566;50.930;5.328;2023-08-06T07:57:16;7.72;;;3.08;;
41883;SDS011;27566;50.930;5.328;2023-08-06T07:59:42;10.68;;;4.10;;
41883;SDS011;27566;50.930;5.328;2023-08-06T08:02:09;7.43;;;3.45;;
41883;SDS011;27566;50.930;5.328;2023-08-06T08:04:35;10.38;;;3.97;;
41883;SDS011;27566;50.930;5.328;2023-08-06T08:07:00;8.85;;;3.85;;
41883;SDS011;27566;50.930;5.328;2023-08-06T08:09:26;9.45;;;4.05;;
41883;SDS011;27566;50.930;5.328;2023-08-06T08:11:52;14.55;;;3.83;;
41883;SDS011;27566;50.930;5.328;2023-08-06T08:14:18;10.25;;;4.18;;
41883;SDS011;27566;50.930;5.328;2023-08-06T08:16:44;9.90;;;4.03;;
41883;SDS011;27566;50.930;5.328;2023-08-06T08:19:10;13.02;;;3.78;;
41883;SDS011;27566;50.930;5.328;2023-08-06T08:21:36;10.52;;;3.08;;
41883;SDS011;27566;50.930;5.328;2023-08-06T08:24:03;10.02;;;3.67;;
41883;SDS011;27566;50.930;5.328;2023-08-06T08:26:40;11.98;;;4.22;;
41883;SDS011;27566;50.930;5.328;2023-08-06T08:29:06;8.73;;;4.30;;
41883;SDS011;27566;50.930;5.328;2023-08-06T08:31:32;12.25;;;3.28;;
41883;SDS011;27566;50.930;5.328;2023-08-06T08:34:04;11.25;;;3.53;;
41883;SDS011;27566;50.930;5.328;2023-08-06T08:36:31;11.52;;;3.83;;
41883;SDS011;27566;50.930;5.328;2023-08-06T08:38:57;13.32;;;3.35;;
41883;SDS011;27566;50.930;5.328;2023-08-06T08:41:23;9.55;;;3.97;;
41883;SDS011;27566;50.930;5.328;2023-08-06T08:43:50;11.65;;;3.95;;
41883;SDS011;27566;50.930;5.328;2023-08-06T08:46:17;12.15;;;4.25;;
41883;SDS011;27566;50.930;5.328;2023-08-06T08:48:46;11.10;;;3.92;;
41883;SDS011;27566;50.930;5.328;2023-08-06T08:51:12;9.27;;;4.00;;
41883;SDS011;27566;50.930;5.328;2023-08-06T08:53:38;13.73;;;4.90;;
41883;SDS011;27566;50.930;5.328;2023-08-06T08:56:04;11.02;;;4.18;;
41883;SDS011;27566;50.930;5.328;2023-08-06T08:58:31;11.23;;;3.58;;
41883;SDS011;27566;50.930;5.328;2023-08-06T09:00:57;10.95;;;3.33;;
41883;SDS011;27566;50.930;5.328;2023-08-06T09:03:24;10.02;;;3.47;;
41883;SDS011;27566;50.930;5.328;2023-08-06T09:05:51;9.18;;;3.05;;
41883;SDS011;27566;50.930;5.328;2023-08-06T09:08:21;11.43;;;2.70;;
41883;SDS011;27566;50.930;5.328;2023-08-06T09:10:52;8.18;;;2.65;;
41883;SDS011;27566;50.930;5.328;2023-08-06T09:13:19;8.82;;;3.28;;
41883;SDS011;27566;50.930;5.328;2023-08-06T09:15:46;11.68;;;3.13;;
41883;SDS011;27566;50.930;5.328;2023-08-06T09:18:12;17.10;;;3.65;;
41883;SDS011;27566;50.930;5.328;2023-08-06T09:20:38;12.35;;;2.78;;
41883;SDS011;27566;50.930;5.328;2023-08-06T09:23:08;11.65;;;2.90;;
41883;SDS011;27566;50.930;5.328;2023-08-06T09:25:36;8.90;;;2.80;;
41883;SDS011;27566;50.930;5.328;2023-08-06T09:28:05;12.18;;;3.65;;
41883;SDS011;27566;50.930;5.328;2023-08-06T09:30:34;12.73;;;3.28;;
41883;SDS011;27566;50.930;5.328;2023-08-06T09:33:02;9.15;;;2.90;;
41883;SDS011;27566;50.930;5.328;2023-08-06T09:35:29;11.60;;;2.90;;
41883;SDS011;27566;50.930;5.328;2023-08-06T09:37:55;10.45;;;2.70;;
41883;SDS011;27566;50.930;5.328;2023-08-06T09:40:35;10.98;;;2.85;;
41883;SDS011;27566;50.930;5.328;2023-08-06T09:43:02;8.90;;;2.42;;
41883;SDS011;27566;50.930;5.328;2023-08-06T09:45:30;10.13;;;2.65;;
41883;SDS011;27566;50.930;5.328;2023-08-06T09:48:11;8.23;;;3.17;;
41883;SDS011;27566;50.930;5.328;2023-08-06T09:50:37;10.98;;;3.10;;
41883;SDS011;27566;50.930;5.328;2023-08-06T09:53:05;8.80;;;2.80;;
41883;SDS011;27566;50.930;5.328;2023-08-06T09:55:31;12.75;;;2.90;;
41883;SDS011;27566;50.930;5.328;2023-08-06T09:57:58;10.00;;;2.95;;
41883;SDS011;27566;50.930;5.328;2023-08-06T10:00:24;9.13;;;3.13;;
41883;SDS011;27566;50.930;5.328;2023-08-06T10:02:52;11.80;;;3.40;;
41883;SDS011;27566;50.930;5.328;2023-08-06T10:05:21;6.53;;;1.70;;
41883;SDS011;27566;50.930;5.328;2023-08-06T10:07:48;8.18;;;2.53;;
41883;SDS011;27566;50.930;5.328;2023-08-06T10:10:17;8.15;;;2.63;;
41883;SDS011;27566;50.930;5.328;2023-08-06T10:12:47;10.98;;;2.10;;
41883;SDS011;27566;50.930;5.328;2023-08-06T10:15:16;10.80;;;2.45;;
41883;SDS011;27566;50.930;5.328;2023-08-06T10:17:47;6.00;;;2.20;;
41883;SDS011;27566;50.930;5.328;2023-08-06T10:20:16;8.90;;;2.20;;
41883;SDS011;27566;50.930;5.328;2023-08-06T10:22:42;6.97;;;2.03;;
41883;SDS011;27566;50.930;5.328;2023-08-06T10:25:13;8.73;;;3.05;;
41883;SDS011;27566;50.930;5.328;2023-08-06T10:32:48;12.07;;;2.42;;
41883;SDS011;27566;50.930;5.328;2023-08-06T10:38:43;9.13;;;3.05;;
41883;SDS011;27566;50.930;5.328;2023-08-06T10:41:02;5.13;;;2.35;;
41883;SDS011;27566;50.930;5.328;2023-08-06T10:45:59;6.20;;;2.50;;
41883;SDS011;27566;50.930;5.328;2023-08-06T10:48:36;5.50;;;2.22;;
41883;SDS011;27566;50.930;5.328;2023-08-06T10:51:09;6.85;;;2.78;;
41883;SDS011;27566;50.930;5.328;2023-08-06T10:53:42;9.40;;;2.63;;
41883;SDS011;27566;50.930;5.328;2023-08-06T10:56:13;2.72;;;1.52;;
41883;SDS011;27566;50.930;5.328;2023-08-06T10:58:40;4.53;;;1.70;;
41883;SDS011;27566;50.930;5.328;2023-08-06T11:01:06;5.55;;;1.55;;
41883;SDS011;27566;50.930;5.328;2023-08-06T11:03:33;9.20;;;1.83;;
41883;SDS011;27566;50.930;5.328;2023-08-06T11:05:59;4.32;;;1.73;;
41883;SDS011;27566;50.930;5.328;2023-08-06T11:08:35;5.43;;;1.48;;
41883;SDS011;27566;50.930;5.328;2023-08-06T11:11:09;4.80;;;1.80;;
41883;SDS011;27566;50.930;5.328;2023-08-06T11:13:39;6.00;;;1.65;;
41883;SDS011;27566;50.930;5.328;2023-08-06T11:19:37;3.30;;;1.27;;
41883;SDS011;27566;50.930;5.328;2023-08-06T11:22:05;4.32;;;1.60;;
41883;SDS011;27566;50.930;5.328;2023-08-06T11:24:31;4.18;;;1.13;;
41883;SDS011;27566;50.930;5.328;2023-08-06T11:26:57;7.70;;;1.92;;
41883;SDS011;27566;50.930;5.328;2023-08-06T11:29:23;12.05;;;3.17;;
41883;SDS011;27566;50.930;5.328;2023-08-06T11:31:49;4.78;;;1.30;;
41883;SDS011;27566;50.930;5.328;2023-08-06T11:34:15;3.20;;;1.20;;
41883;SDS011;27566;50.930;5.328;2023-08-06T11:36:42;5.55;;;1.40;;
41883;SDS011;27566;50.930;5.328;2023-08-06T11:39:08;8.32;;;2.92;;
41883;SDS011;27566;50.930;5.328;2023-08-06T11:41:35;7.95;;;3.03;;
41883;SDS011;27566;50.930;5.328;2023-08-06T11:44:03;12.57;;;4.45;;
41883;SDS011;27566;50.930;5.328;2023-08-06T11:46:29;8.50;;;2.05;;
41883;SDS011;27566;50.930;5.328;2023-08-06T11:49:14;7.55;;;1.67;;
41883;SDS011;27566;50.930;5.328;2023-08-06T11:51:40;6.72;;;2.10;;
41883;SDS011;27566;50.930;5.328;2023-08-06T11:54:06;4.30;;;1.98;;
41883;SDS011;27566;50.930;5.328;2023-08-06T11:56:33;5.55;;;1.60;;
41883;SDS011;27566;50.930;5.328;2023-08-06T11:59:00;5.20;;;1.85;;
41883;SDS011;27566;50.930;5.328;2023-08-06T12:01:26;4.30;;;1.15;;
41883;SDS011;27566;50.930;5.328;2023-08-06T13:24:29;3.83;;;1.40;;
41883;SDS011;27566;50.930;5.328;2023-08-06T13:26:56;4.38;;;1.40;;
41883;SDS011;27566;50.930;5.328;2023-08-06T13:29:22;2.90;;;1.45;;
41883;SDS011;27566;50.930;5.328;2023-08-06T13:31:48;6.75;;;1.70;;
41883;SDS011;27566;50.930;5.328;2023-08-06T13:34:14;5.45;;;1.67;;
41883;SDS011;27566;50.930;5.328;2023-08-06T13:36:41;2.80;;;1.77;;
41883;SDS011;27566;50.930;5.328;2023-08-06T13:39:07;9.02;;;2.25;;
41883;SDS011;27566;50.930;5.328;2023-08-06T13:41:33;7.88;;;2.03;;
41883;SDS011;27566;50.930;5.328;2023-08-06T13:43:59;4.20;;;2.35;;
41883;SDS011;27566;50.930;5.328;2023-08-06T13:46:25;6.15;;;1.70;;
41883;SDS011;27566;50.930;5.328;2023-08-06T13:48:51;10.10;;;2.15;;
41883;SDS011;27566;50.930;5.328;2023-08-06T13:51:17;5.55;;;1.80;;
41883;SDS011;27566;50.930;5.328;2023-08-06T13:53:43;10.15;;;1.67;;
41883;SDS011;27566;50.930;5.328;2023-08-06T13:56:10;4.93;;;1.65;;
41883;SDS011;27566;50.930;5.328;2023-08-06T13:58:36;3.75;;;2.10;;
41883;SDS011;27566;50.930;5.328;2023-08-06T14:01:09;5.88;;;1.40;;
41883;SDS011;27566;50.930;5.328;2023-08-06T14:03:35;6.43;;;1.67;;
41883;SDS011;27566;50.930;5.328;2023-08-06T14:06:01;5.97;;;1.88;;
41883;SDS011;27566;50.930;5.328;2023-08-06T14:08:27;5.65;;;1.80;;
41883;SDS011;27566;50.930;5.328;2023-08-06T14:10:56;4.00;;;1.63;;
41883;SDS011;27566;50.930;5.328;2023-08-06T14:13:22;4.38;;;1.70;;
41883;SDS011;27566;50.930;5.328;2023-08-06T14:15:48;4.20;;;1.23;;
41883;SDS011;27566;50.930;5.328;2023-08-06T14:18:14;4.40;;;1.17;;
41883;SDS011;27566;50.930;5.328;2023-08-06T14:20:40;5.28;;;1.60;;
41883;SDS011;27566;50.930;5.328;2023-08-06T14:23:07;3.72;;;1.20;;
41883;SDS011;27566;50.930;5.328;2023-08-06T14:25:33;3.60;;;1.23;;
41883;SDS011;27566;50.930;5.328;2023-08-06T14:27:59;5.13;;;1.30;;
41883;SDS011;27566;50.930;5.328;2023-08-06T14:30:25;3.60;;;0.70;;
41883;SDS011;27566;50.930;5.328;2023-08-06T14:32:51;3.60;;;1.00;;
41883;SDS011;27566;50.930;5.328;2023-08-06T14:35:17;3.50;;;0.77;;
41883;SDS011;27566;50.930;5.328;2023-08-06T14:37:43;2.67;;;0.98;;
41883;SDS011;27566;50.930;5.328;2023-08-06T14:40:10;3.40;;;0.75;;
41883;SDS011;27566;50.930;5.328;2023-08-06T14:42:37;2.92;;;1.50;;
41883;SDS011;27566;50.930;5.328;2023-08-06T14:45:03;3.28;;;1.05;;
41883;SDS011;27566;50.930;5.328;2023-08-06T14:47:29;2.35;;;0.77;;
41883;SDS011;27566;50.930;5.328;2023-08-06T14:49:55;3.40;;;1.05;;
41883;SDS011;27566;50.930;5.328;2023-08-06T14:52:21;3.47;;;0.70;;
41883;SDS011;27566;50.930;5.328;2023-08-06T14:54:47;3.17;;;1.20;;
41883;SDS011;27566;50.930;5.328;2023-08-06T14:57:13;3.22;;;1.00;;
41883;SDS011;27566;50.930;5.328;2023-08-06T14:59:39;3.35;;;1.00;;
41883;SDS011;27566;50.930;5.328;2023-08-06T15:02:05;2.78;;;1.00;;
41883;SDS011;27566;50.930;5.328;2023-08-06T15:04:31;5.70;;;1.83;;
41883;SDS011;27566;50.930;5.328;2023-08-06T15:06:57;9.25;;;1.83;;
41883;SDS011;27566;50.930;5.328;2023-08-06T15:09:23;4.35;;;1.20;;
41883;SDS011;27566;50.930;5.328;2023-08-06T15:11:49;5.78;;;1.55;;
41883;SDS011;27566;50.930;5.328;2023-08-06T15:14:15;7.10;;;1.52;;
41883;SDS011;27566;50.930;5.328;2023-08-06T15:16:41;8.57;;;1.58;;
41883;SDS011;27566;50.930;5.328;2023-08-06T15:19:07;4.22;;;1.30;;
41883;SDS011;27566;50.930;5.328;2023-08-06T15:21:33;4.35;;;1.40;;
41883;SDS011;27566;50.930;5.328;2023-08-06T15:23:59;4.18;;;1.50;;
41883;SDS011;27566;50.930;5.328;2023-08-06T15:26:25;6.85;;;1.80;;
41883;SDS011;27566;50.930;5.328;2023-08-06T15:28:52;6.85;;;1.63;;
41883;SDS011;27566;50.930;5.328;2023-08-06T15:31:21;4.32;;;1.35;;
41883;SDS011;27566;50.930;5.328;2023-08-06T15:33:47;6.30;;;1.95;;
41883;SDS011;27566;50.930;5.328;2023-08-06T15:36:13;3.97;;;1.65;;
41883;SDS011;27566;50.930;5.328;2023-08-06T15:38:39;10.68;;;1.50;;
41883;SDS011;27566;50.930;5.328;2023-08-06T15:41:05;4.20;;;2.10;;
41883;SDS011;27566;50.930;5.328;2023-08-06T15:43:31;5.60;;;1.65;;
41883;SDS011;27566;50.930;5.328;2023-08-06T15:45:58;4.63;;;1.30;;
41883;SDS011;27566;50.930;5.328;2023-08-06T15:48:24;4.78;;;1.73;;
41883;SDS011;27566;50.930;5.328;2023-08-06T15:50:50;6.72;;;1.88;;
41883;SDS011;27566;50.930;5.328;2023-08-06T15:53:16;8.68;;;2.50;;
41883;SDS011;27566;50.930;5.328;2023-08-06T15:55:42;9.25;;;2.60;;
41883;SDS011;27566;50.930;5.328;2023-08-06T15:58:08;8.32;;;2.30;;
41883;SDS011;27566;50.930;5.328;2023-08-06T16:00:34;10.05;;;2.55;;
41883;SDS011;27566;50.930;5.328;2023-08-06T16:03:00;6.13;;;2.28;;
41883;SDS011;27566;50.930;5.328;2023-08-06T16:05:27;9.82;;;2.25;;
41883;SDS011;27566;50.930;5.328;2023-08-06T16:07:52;8.32;;;3.15;;
41883;SDS011;27566;50.930;5.328;2023-08-06T16:10:18;5.15;;;1.98;;
41883;SDS011;27566;50.930;5.328;2023-08-06T16:12:44;6.75;;;2.33;;
41883;SDS011;27566;50.930;5.328;2023-08-06T16:15:10;13.70;;;2.10;;
41883;SDS011;27566;50.930;5.328;2023-08-06T16:17:38;8.70;;;3.08;;
41883;SDS011;27566;50.930;5.328;2023-08-06T16:20:04;6.55;;;2.28;;
41883;SDS011;27566;50.930;5.328;2023-08-06T16:22:31;7.00;;;2.47;;
41883;SDS011;27566;50.930;5.328;2023-08-06T16:24:58;5.03;;;1.80;;
41883;SDS011;27566;50.930;5.328;2023-08-06T18:26:20;11.10;;;2.50;;
41883;SDS011;27566;50.930;5.328;2023-08-06T18:28:46;10.23;;;2.42;;